Time;durP1;ratioP1;P1;durP2;ratioP2;P2;SDS_P1;SDS_P2;PMS_P1;PMS_P2;Temp;Humidity;BMP_temperature;BMP_pressure;BME280_temperature;BME280_humidity;BME280_pressure;Samples;Min_cycle;Max_cycle;Signal;HPM_P1;HPM_P2
2021/11/15 00:02:07;;;;;;;33.50;21.80;;;;;;;9.46;100.00;102162.31;5086535;28;20422;-62
2021/11/15 00:04:34;;;;;;;35.13;22.40;;;;;;;9.43;100.00;102165.03;5089427;28;20192;-62
2021/11/15 00:07:01;;;;;;;38.90;23.77;;;;;;;9.44;100.00;102162.34;5088072;28;20460;-63
2021/11/15 00:09:27;;;;;;;44.47;29.03;;;;;;;9.51;100.00;102164.75;5087525;28;20459;-61
2021/11/15 00:11:52;;;;;;;50.27;29.00;;;;;;;9.54;100.00;102167.28;5089010;28;20405;-60
2021/11/15 00:14:18;;;;;;;50.40;32.77;;;;;;;9.51;100.00;102168.22;5078460;28;20438;-62
2021/11/15 00:16:44;;;;;;;45.40;27.50;;;;;;;9.59;100.00;102168.78;5083364;28;20167;-62
2021/11/15 00:19:09;;;;;;;40.17;21.57;;;;;;;9.64;100.00;102176.47;5088600;28;20440;-62
2021/11/15 00:21:35;;;;;;;49.40;30.80;;;;;;;9.62;100.00;102170.44;5086603;28;20179;-64
2021/11/15 00:24:01;;;;;;;39.90;24.27;;;;;;;9.64;100.00;102171.22;5088473;28;20168;-62
2021/11/15 00:26:27;;;;;;;47.87;28.60;;;;;;;9.65;100.00;102175.56;5088669;28;20507;-63
2021/11/15 00:28:52;;;;;;;45.73;29.10;;;;;;;9.64;100.00;102179.94;5088807;28;20218;-63
2021/11/15 00:31:19;;;;;;;45.80;26.00;;;;;;;9.66;100.00;102167.63;5088265;28;20424;-65
2021/11/15 00:33:45;;;;;;;47.97;30.63;;;;;;;9.63;100.00;102172.16;5088737;28;20616;-64
2021/11/15 00:36:10;;;;;;;45.30;28.37;;;;;;;9.65;100.00;102171.16;5089027;28;20450;-63
2021/11/15 00:38:36;;;;;;;40.53;23.47;;;;;;;9.62;100.00;102175.69;5087290;28;21006;-63
2021/11/15 00:41:02;;;;;;;46.83;29.63;;;;;;;9.59;100.00;102179.28;5088518;28;20203;-64
2021/11/15 00:43:27;;;;;;;42.43;26.90;;;;;;;9.61;100.00;102181.84;5088355;28;20965;-64
2021/11/15 00:45:53;;;;;;;38.00;23.67;;;;;;;9.62;100.00;102173.06;5088256;28;20182;-65
2021/11/15 00:48:18;;;;;;;45.80;28.20;;;;;;;9.64;100.00;102179.09;5088350;28;20215;-62
2021/11/15 00:50:44;;;;;;;48.03;30.13;;;;;;;9.66;100.00;102180.75;5087523;28;20167;-64
2021/11/15 00:53:09;;;;;;;43.20;25.03;;;;;;;9.67;100.00;102177.22;5092475;28;20851;-59
2021/11/15 00:55:35;;;;;;;46.07;28.20;;;;;;;9.70;100.00;102177.09;5092510;28;20167;-62
2021/11/15 00:58:02;;;;;;;38.73;23.77;;;;;;;9.69;100.00;102180.63;5092374;28;20160;-62
2021/11/15 01:00:30;;;;;;;43.57;27.07;;;;;;;9.70;100.00;102179.72;5092733;28;20528;-60
2021/11/15 01:02:57;;;;;;;35.47;23.37;;;;;;;9.82;100.00;102180.13;5086500;28;20405;-61
2021/11/15 01:05:24;;;;;;;36.20;21.30;;;;;;;9.91;100.00;102166.66;5075558;28;20437;-62
2021/11/15 01:07:50;;;;;;;31.37;14.37;;;;;;;10.05;100.00;102158.19;5092242;28;20402;-62
2021/11/15 01:10:19;;;;;;;28.40;16.50;;;;;;;10.14;100.00;102158.66;5091729;28;21098;-63
2021/11/15 01:12:45;;;;;;;23.93;14.17;;;;;;;10.26;100.00;102146.81;5091808;28;20925;-65
2021/11/15 01:15:13;;;;;;;19.13;12.93;;;;;;;10.33;100.00;102147.41;5091791;28;20490;-62
2021/11/15 01:17:39;;;;;;;20.50;13.73;;;;;;;10.39;100.00;102141.88;5091360;28;20168;-63
2021/11/15 01:20:09;;;;;;;21.10;11.73;;;;;;;10.48;100.00;102146.75;5091558;28;20936;-63
2021/11/15 01:22:34;;;;;;;20.30;13.37;;;;;;;10.50;100.00;102147.50;5092281;28;20911;-63
2021/11/15 01:25:00;;;;;;;23.83;11.93;;;;;;;10.53;100.00;102150.88;5091180;28;21020;-64
2021/11/15 01:27:25;;;;;;;20.90;11.63;;;;;;;10.54;100.00;102160.47;5091259;28;20176;-59
2021/11/15 01:29:51;;;;;;;19.07;13.13;;;;;;;10.57;100.00;102160.31;5091195;28;20247;-62
2021/11/15 01:32:18;;;;;;;23.03;13.63;;;;;;;10.58;100.00;102166.47;5091527;28;20317;-63
2021/11/15 01:34:44;;;;;;;21.07;13.23;;;;;;;10.53;100.00;102166.66;5091838;28;20213;-65
2021/11/15 01:37:09;;;;;;;23.90;14.50;;;;;;;10.54;100.00;102167.50;5091287;28;20401;-65
2021/11/15 01:39:35;;;;;;;24.17;12.33;;;;;;;10.61;100.00;102173.34;5091055;28;20275;-66
2021/11/15 01:42:03;;;;;;;22.60;14.27;;;;;;;10.60;100.00;102169.88;5091294;28;20261;-62
2021/11/15 01:44:29;;;;;;;22.77;14.00;;;;;;;10.63;100.00;102166.25;5091372;28;20717;-64
2021/11/15 01:46:55;;;;;;;22.43;12.97;;;;;;;10.59;100.00;102173.41;5090927;28;20413;-61
2021/11/15 01:49:21;;;;;;;22.43;12.93;;;;;;;10.60;100.00;102177.75;5090627;28;20476;-62
2021/11/15 01:51:46;;;;;;;18.73;11.90;;;;;;;10.59;100.00;102170.78;5089504;28;20199;-63
2021/11/15 01:54:12;;;;;;;19.83;12.50;;;;;;;10.57;100.00;102180.50;5090718;28;20414;-63
2021/11/15 01:56:37;;;;;;;17.87;11.83;;;;;;;10.58;100.00;102184.84;5090951;28;20168;-63
2021/11/15 01:59:04;;;;;;;23.97;13.10;;;;;;;10.62;100.00;102181.16;5090939;28;20224;-62
2021/11/15 02:01:30;;;;;;;22.20;11.03;;;;;;;10.58;100.00;102187.47;5091227;28;20619;-65
2021/11/15 02:03:57;;;;;;;18.83;10.73;;;;;;;10.56;100.00;102187.53;5090171;28;21269;-61
2021/11/15 02:06:23;;;;;;;22.03;12.20;;;;;;;10.50;100.00;102184.31;5090305;28;20186;-63
2021/11/15 02:08:49;;;;;;;22.40;13.17;;;;;;;10.48;100.00;102189.63;5091486;28;20449;-62
2021/11/15 02:11:14;;;;;;;21.80;12.80;;;;;;;10.44;100.00;102190.69;5090758;28;20421;-61
2021/11/15 02:13:40;;;;;;;21.27;11.17;;;;;;;10.43;100.00;102189.00;5091225;28;20184;-61
2021/11/15 02:16:06;;;;;;;20.17;12.10;;;;;;;10.47;100.00;102187.94;5093502;28;20639;-59
2021/11/15 02:18:32;;;;;;;24.67;11.97;;;;;;;10.47;100.00;102197.59;5089789;28;20164;-65
2021/11/15 02:20:59;;;;;;;22.63;12.80;;;;;;;10.48;100.00;102199.28;5098086;28;20408;-61
2021/11/15 02:23:27;;;;;;;20.13;13.60;;;;;;;10.52;100.00;102203.50;5099821;28;20156;-62
2021/11/15 02:25:54;;;;;;;21.50;13.20;;;;;;;10.59;100.00;102185.72;5093042;28;20413;-61
2021/11/15 02:28:29;;;;;;;21.87;13.17;;;;;;;10.58;100.00;102198.00;5093118;28;20441;-63
2021/11/15 02:30:55;;;;;;;20.70;11.53;;;;;;;10.57;100.00;102199.75;5093177;28;20409;-62
2021/11/15 02:33:21;;;;;;;18.53;11.87;;;;;;;10.58;100.00;102190.13;5093144;28;20967;-61
2021/11/15 02:35:47;;;;;;;20.27;11.10;;;;;;;10.59;100.00;102193.59;5092911;28;20553;-62
2021/11/15 02:38:13;;;;;;;23.17;12.47;;;;;;;10.57;100.00;102193.63;5093223;28;20498;-62
2021/11/15 02:40:39;;;;;;;21.27;13.27;;;;;;;10.60;100.00;102198.78;5092659;28;20632;-62
2021/11/15 02:43:05;;;;;;;26.77;13.23;;;;;;;10.62;100.00;102202.19;5093203;28;20394;-64
2021/11/15 02:45:31;;;;;;;23.60;13.40;;;;;;;10.59;100.00;102197.06;5093395;28;20631;-60
2021/11/15 02:47:58;;;;;;;24.20;13.80;;;;;;;10.61;100.00;102215.41;5091235;28;20871;-62
2021/11/15 02:50:27;;;;;;;21.73;12.30;;;;;;;10.68;100.00;102208.97;5093262;28;20558;-62
2021/11/15 02:52:56;;;;;;;21.43;12.50;;;;;;;10.70;100.00;102213.22;5079435;28;20414;-60
2021/11/15 02:55:23;;;;;;;21.63;12.43;;;;;;;10.67;100.00;102208.09;5092988;28;20482;-61
2021/11/15 02:57:49;;;;;;;24.80;13.93;;;;;;;10.63;100.00;102214.41;5093124;28;20775;-65
2021/11/15 03:00:21;;;;;;;24.63;14.20;;;;;;;10.66;100.00;102205.56;5092441;28;20442;-61
2021/11/15 03:02:47;;;;;;;23.27;13.63;;;;;;;10.68;100.00;102201.06;5092773;28;20402;-62
2021/11/15 03:05:13;;;;;;;22.03;12.80;;;;;;;10.68;100.00;102208.97;5092271;28;20434;-63
2021/11/15 03:07:38;;;;;;;23.27;13.33;;;;;;;10.68;100.00;102215.06;5092215;28;20971;-61
2021/11/15 03:10:04;;;;;;;21.97;12.87;;;;;;;10.73;100.00;102215.72;5092221;28;20836;-61
2021/11/15 03:12:33;;;;;;;22.30;13.00;;;;;;;10.75;100.00;102223.53;5092439;28;20674;-64
2021/11/15 03:14:59;;;;;;;22.57;12.57;;;;;;;10.72;100.00;102213.13;5092536;28;20402;-61
2021/11/15 03:17:25;;;;;;;22.17;13.40;;;;;;;10.71;100.00;102207.03;5091324;28;20494;-62
2021/11/15 03:19:50;;;;;;;21.50;12.60;;;;;;;10.73;100.00;102212.22;5092514;28;20164;-60
2021/11/15 03:22:16;;;;;;;20.77;12.60;;;;;;;10.73;100.00;102214.84;5092605;28;20615;-63
2021/11/15 03:24:42;;;;;;;23.30;13.57;;;;;;;10.76;100.00;102215.59;5092164;28;20167;-64
2021/11/15 03:27:08;;;;;;;23.60;12.70;;;;;;;10.81;100.00;102218.88;5090420;28;20410;-64
2021/11/15 03:29:33;;;;;;;23.90;14.33;;;;;;;10.84;100.00;102217.88;5091578;28;20215;-64
2021/11/15 03:31:59;;;;;;;28.07;14.70;;;;;;;10.83;100.00;102216.16;5092323;28;20160;-65
2021/11/15 03:34:25;;;;;;;20.50;13.23;;;;;;;10.87;100.00;102222.13;5091787;28;20519;-63
2021/11/15 03:36:52;;;;;;;21.07;13.60;;;;;;;10.82;100.00;102220.56;5091930;28;20156;-62
2021/11/15 03:39:18;;;;;;;19.57;11.83;;;;;;;10.85;100.00;102216.94;5090761;28;20439;-60
2021/11/15 03:41:44;;;;;;;20.10;13.00;;;;;;;10.82;100.00;102217.09;5092165;28;20406;-62
2021/11/15 03:44:10;;;;;;;20.40;12.63;;;;;;;10.77;100.00;102217.28;5091930;28;20228;-64
2021/11/15 03:46:37;;;;;;;21.60;12.30;;;;;;;10.77;100.00;102224.31;5091085;28;20913;-59
2021/11/15 03:49:03;;;;;;;21.20;12.00;;;;;;;10.73;100.00;102218.34;5084180;28;20460;-61
2021/11/15 03:51:29;;;;;;;20.03;14.50;;;;;;;10.69;100.00;102221.16;5091628;28;20413;-64
2021/11/15 03:53:55;;;;;;;27.50;15.30;;;;;;;10.72;100.00;102219.25;5091745;28;20459;-63
2021/11/15 03:56:27;;;;;;;21.70;13.37;;;;;;;10.61;100.00;102223.28;5091003;28;20175;-64
2021/11/15 03:58:54;;;;;;;22.83;11.90;;;;;;;10.69;100.00;102222.03;5091139;28;20766;-61
2021/11/15 04:01:24;;;;;;;21.33;12.17;;;;;;;10.69;100.00;102226.44;5087521;28;20402;-61
2021/11/15 04:03:50;;;;;;;23.10;13.03;;;;;;;10.65;100.00;102223.06;5091324;28;20883;-64
2021/11/15 04:06:24;;;;;;;22.77;12.33;;;;;;;10.59;100.00;102223.34;5091230;28;20939;-64
2021/11/15 04:09:05;;;;;;;25.83;13.57;;;;;;;10.50;100.00;102219.34;5091364;28;20186;-59
2021/11/15 04:11:32;;;;;;;18.27;11.87;;;;;;;10.43;100.00;102217.03;5082874;28;20400;-63
2021/11/15 04:14:03;;;;;;;22.80;13.90;;;;;;;10.37;100.00;102217.28;5091862;28;20389;-61
2021/11/15 04:16:29;;;;;;;21.87;11.37;;;;;;;10.35;100.00;102216.47;5091506;28;20443;-61
2021/11/15 04:19:06;;;;;;;22.63;13.83;;;;;;;10.26;100.00;102213.31;5091175;28;20406;-61
2021/11/15 04:21:33;;;;;;;30.87;13.87;;;;;;;10.22;100.00;102219.66;5091704;28;20603;-65
2021/11/15 04:23:59;;;;;;;25.13;13.20;;;;;;;10.16;100.00;102219.00;5090899;28;20414;-60
2021/11/15 04:26:24;;;;;;;20.67;12.57;;;;;;;10.09;100.00;102218.41;5089744;28;20780;-61
2021/11/15 04:28:50;;;;;;;26.30;13.03;;;;;;;10.01;100.00;102215.22;5091422;28;20552;-62
2021/11/15 04:31:15;;;;;;;23.00;13.97;;;;;;;9.99;100.00;102212.69;5090561;28;20248;-61
2021/11/15 04:33:41;;;;;;;21.73;12.27;;;;;;;9.99;100.00;102225.81;5091051;28;20179;-62
2021/11/15 04:36:06;;;;;;;24.10;14.50;;;;;;;9.98;100.00;102229.34;5090884;28;20560;-63
2021/11/15 04:38:32;;;;;;;25.87;13.17;;;;;;;10.01;100.00;102229.22;5090996;28;20210;-64
2021/11/15 04:40:58;;;;;;;25.47;14.80;;;;;;;10.00;100.00;102242.41;5090811;28;20659;-65
2021/11/15 04:43:23;;;;;;;21.37;12.57;;;;;;;9.98;100.00;102244.25;5091222;28;20187;-62
2021/11/15 04:45:49;;;;;;;27.33;13.57;;;;;;;10.02;100.00;102243.19;5090732;28;20619;-64
2021/11/15 04:48:14;;;;;;;22.67;12.70;;;;;;;10.11;100.00;102245.44;5090665;28;20164;-66
2021/11/15 04:50:40;;;;;;;24.00;14.67;;;;;;;10.17;100.00;102250.44;5090967;28;20201;-61
2021/11/15 04:53:05;;;;;;;24.30;13.00;;;;;;;10.21;100.00;102251.19;5090401;28;20172;-64
2021/11/15 04:55:31;;;;;;;25.00;14.37;;;;;;;10.22;100.00;102245.91;5090835;28;20706;-62
2021/11/15 04:57:57;;;;;;;23.90;13.50;;;;;;;10.24;100.00;102256.34;5090911;28;20217;-63
2021/11/15 05:00:29;;;;;;;19.90;12.97;;;;;;;10.31;100.00;102247.31;5090759;28;20183;-63
2021/11/15 05:02:55;;;;;;;20.83;13.93;;;;;;;10.37;100.00;102254.94;5088652;28;20398;-65
2021/11/15 05:05:21;;;;;;;19.63;11.90;;;;;;;10.36;100.00;102258.47;5090176;28;20447;-63
2021/11/15 05:07:48;;;;;;;19.83;12.13;;;;;;;10.38;100.00;102255.78;5090547;28;20164;-63
2021/11/15 05:10:15;;;;;;;24.63;13.57;;;;;;;10.39;100.00;102268.84;5089815;28;20433;-63
2021/11/15 05:12:41;;;;;;;22.67;13.67;;;;;;;10.42;100.00;102273.97;5089820;28;20485;-62
2021/11/15 05:15:13;;;;;;;21.50;12.40;;;;;;;10.40;100.00;102269.69;5089710;28;20416;-61
2021/11/15 05:17:39;;;;;;;27.17;14.70;;;;;;;10.41;100.00;102272.25;5090656;28;20405;-62
2021/11/15 05:20:08;;;;;;;21.53;12.33;;;;;;;10.45;100.00;102276.50;5090596;28;20390;-62
2021/11/15 05:22:35;;;;;;;22.67;13.50;;;;;;;10.51;100.00;102276.25;5084083;28;20449;-61
2021/11/15 05:25:00;;;;;;;22.33;13.17;;;;;;;10.49;100.00;102288.56;5089700;28;20401;-62
2021/11/15 05:27:26;;;;;;;24.10;12.57;;;;;;;10.57;100.00;102283.00;5090226;28;20413;-66
2021/11/15 05:29:51;;;;;;;23.47;12.83;;;;;;;10.61;100.00;102287.22;5089980;28;20691;-63
2021/11/15 05:32:17;;;;;;;21.13;12.43;;;;;;;10.68;100.00;102295.69;5089340;28;20201;-62
2021/11/15 05:34:43;;;;;;;19.67;12.40;;;;;;;10.68;100.00;102290.44;5092028;28;20164;-60
2021/11/15 05:37:09;;;;;;;22.17;12.83;;;;;;;10.69;100.00;102298.25;5089288;28;20172;-65
2021/11/15 05:39:34;;;;;;;24.53;13.97;;;;;;;10.76;100.00;102294.44;5093361;28;20689;-62
2021/11/15 05:42:01;;;;;;;23.93;13.50;;;;;;;10.80;100.00;102296.00;5093104;28;20167;-61
2021/11/15 05:44:27;;;;;;;21.40;12.43;;;;;;;10.82;100.00;102303.88;5093611;28;20168;-62
2021/11/15 05:46:53;;;;;;;21.67;11.60;;;;;;;10.81;100.00;102304.78;5093522;28;20459;-62
2021/11/15 05:49:19;;;;;;;21.03;12.77;;;;;;;10.80;100.00;102306.53;5083246;28;20511;-64
2021/11/15 05:51:44;;;;;;;22.67;12.40;;;;;;;10.82;100.00;102309.97;5073508;28;20811;-60
2021/11/15 05:54:10;;;;;;;19.47;12.67;;;;;;;10.86;100.00;102313.31;5073239;28;20667;-64
2021/11/15 05:56:36;;;;;;;20.60;13.00;;;;;;;10.91;100.00;102323.66;5085588;28;20750;-65
2021/11/15 05:59:02;;;;;;;26.30;14.93;;;;;;;10.94;100.00;102320.88;5096910;28;20225;-61
2021/11/15 06:01:27;;;;;;;28.93;15.10;;;;;;;11.02;100.00;102318.75;5084150;28;20160;-66
2021/11/15 06:03:53;;;;;;;22.80;12.87;;;;;;;10.99;100.00;102321.53;5096557;28;20479;-62
2021/11/15 06:06:18;;;;;;;25.90;14.20;;;;;;;10.97;100.00;102323.38;5085276;28;20168;-64
2021/11/15 06:08:44;;;;;;;22.80;12.13;;;;;;;11.02;100.00;102319.63;5092233;28;20191;-60
2021/11/15 06:11:09;;;;;;;26.20;12.83;;;;;;;11.08;100.00;102321.13;5102965;28;20156;-60
2021/11/15 06:13:35;;;;;;;18.50;12.10;;;;;;;11.08;100.00;102316.72;5092635;28;20171;-62
2021/11/15 06:16:01;;;;;;;24.60;12.30;;;;;;;11.07;100.00;102322.06;5092392;28;20272;-62
2021/11/15 06:18:26;;;;;;;30.20;14.23;;;;;;;11.07;100.00;102320.28;5093203;28;20156;-61
2021/11/15 06:20:52;;;;;;;24.07;13.30;;;;;;;11.05;100.00;102319.50;5091962;28;20276;-62
2021/11/15 06:23:17;;;;;;;31.07;13.67;;;;;;;11.07;100.00;102322.91;5092287;28;20156;-64
2021/11/15 06:25:43;;;;;;;23.13;13.13;;;;;;;11.14;100.00;102328.78;5125333;27;20156;-60
2021/11/15 06:28:09;;;;;;;23.60;13.90;;;;;;;11.19;100.00;102325.94;5092112;28;20182;-63
2021/11/15 06:30:36;;;;;;;20.63;12.83;;;;;;;11.25;100.00;102329.13;5091850;28;20453;-62
2021/11/15 06:33:02;;;;;;;20.57;12.60;;;;;;;11.27;100.00;102331.72;5092062;28;20263;-61
2021/11/15 06:35:29;;;;;;;25.50;13.87;;;;;;;11.24;100.00;102337.09;5092252;28;20842;-62
2021/11/15 06:37:56;;;;;;;21.37;13.73;;;;;;;11.34;100.00;102341.91;5092482;28;20164;-62
2021/11/15 06:40:21;;;;;;;23.80;13.50;;;;;;;11.29;100.00;102361.44;5093051;28;20927;-65
2021/11/15 06:42:47;;;;;;;22.27;13.17;;;;;;;11.35;100.00;102351.50;5093071;28;20378;-63
2021/11/15 06:45:14;;;;;;;29.97;15.50;;;;;;;11.44;100.00;102362.56;5092269;28;20167;-65
2021/11/15 06:47:41;;;;;;;24.70;14.27;;;;;;;11.44;100.00;102354.66;5092658;28;20855;-63
2021/11/15 06:50:09;;;;;;;27.57;14.87;;;;;;;11.39;100.00;102363.59;5091708;28;20584;-62
2021/11/15 06:52:35;;;;;;;23.00;13.00;;;;;;;11.44;100.00;102362.56;5088217;28;20407;-62
2021/11/15 06:55:01;;;;;;;29.00;14.13;;;;;;;11.48;100.00;102366.75;5074599;28;20474;-62
2021/11/15 06:57:28;;;;;;;27.43;15.27;;;;;;;11.46;100.00;102347.53;5092590;28;20527;-59
2021/11/15 06:59:54;;;;;;;26.80;15.03;;;;;;;11.55;100.00;102347.13;5082233;28;20247;-61
2021/11/15 07:02:20;;;;;;;26.37;14.47;;;;;;;11.65;100.00;102346.66;5091542;28;20969;-64
2021/11/15 07:04:47;;;;;;;30.10;16.53;;;;;;;11.71;100.00;102342.88;5091559;28;20441;-66
2021/11/15 07:07:14;;;;;;;27.13;14.80;;;;;;;11.74;100.00;102345.38;5092161;28;20946;-65
2021/11/15 07:09:40;;;;;;;28.10;14.97;;;;;;;11.71;100.00;102350.78;5091538;28;20456;-64
2021/11/15 07:12:06;;;;;;;27.37;14.53;;;;;;;11.81;100.00;102360.00;5092155;28;20406;-62
2021/11/15 07:14:32;;;;;;;37.77;23.40;;;;;;;11.83;100.00;102362.56;5092129;28;20847;-63
2021/11/15 07:16:57;;;;;;;29.03;16.87;;;;;;;11.89;100.00;102363.16;5091903;28;20443;-65
2021/11/15 07:19:23;;;;;;;27.57;14.50;;;;;;;11.97;100.00;102372.47;5092625;28;20163;-66
2021/11/15 07:21:49;;;;;;;24.20;13.33;;;;;;;11.94;100.00;102355.91;5091923;28;20176;-66
2021/11/15 07:24:14;;;;;;;25.90;14.80;;;;;;;11.79;100.00;102360.94;5091285;28;20623;-62
2021/11/15 07:26:40;;;;;;;23.60;14.33;;;;;;;12.02;100.00;102352.91;5091868;28;20213;-63
2021/11/15 07:29:05;;;;;;;22.17;14.50;;;;;;;12.14;100.00;102362.00;5091386;28;20606;-61
2021/11/15 07:31:31;;;;;;;25.43;13.77;;;;;;;12.12;100.00;102363.84;5091635;28;20171;-60
2021/11/15 07:33:57;;;;;;;23.77;14.53;;;;;;;12.13;100.00;102355.88;5092087;28;20175;-65
2021/11/15 07:36:23;;;;;;;25.20;15.13;;;;;;;11.89;100.00;102363.16;5091779;28;20409;-63
2021/11/15 07:38:49;;;;;;;22.73;13.60;;;;;;;11.77;100.00;102366.28;5092037;28;20171;-61
2021/11/15 07:41:14;;;;;;;22.17;13.40;;;;;;;11.99;100.00;102363.56;5092980;28;20917;-62
2021/11/15 07:43:40;;;;;;;23.13;14.70;;;;;;;12.01;100.00;102360.84;5090903;28;20163;-62
2021/11/15 07:46:06;;;;;;;21.97;13.97;;;;;;;12.02;100.00;102354.69;5090627;28;20217;-64
2021/11/15 07:48:31;;;;;;;25.43;13.77;;;;;;;11.85;100.00;102373.88;5102151;28;20199;-61
2021/11/15 07:50:59;;;;;;;22.87;13.10;;;;;;;11.92;100.00;102377.94;5104946;28;20607;-63
2021/11/15 07:53:25;;;;;;;22.90;13.50;;;;;;;11.92;100.00;102384.06;5079785;28;20171;-62
2021/11/15 07:55:51;;;;;;;22.63;13.87;;;;;;;11.87;100.00;102383.44;5088382;28;20420;-62
2021/11/15 07:58:17;;;;;;;25.50;12.50;;;;;;;11.96;100.00;102386.56;5088300;28;20414;-62
2021/11/15 08:00:42;;;;;;;24.50;13.97;;;;;;;11.99;100.00;102389.06;5080313;28;20790;-63
2021/11/15 08:03:08;;;;;;;21.77;12.40;;;;;;;11.81;100.00;102391.59;5087729;28;20199;-64
2021/11/15 08:05:34;;;;;;;22.87;12.83;;;;;;;11.85;100.00;102390.53;5089429;28;20168;-64
2021/11/15 08:08:00;;;;;;;27.17;12.27;;;;;;;11.97;100.00;102383.88;5090511;28;20160;-63
2021/11/15 08:10:26;;;;;;;19.80;12.10;;;;;;;11.89;100.00;102386.84;5090226;28;20540;-64
2021/11/15 08:12:54;;;;;;;21.37;12.97;;;;;;;11.80;100.00;102383.75;5089912;28;20492;-64
2021/11/15 08:15:22;;;;;;;24.03;13.80;;;;;;;11.70;100.00;102385.06;5090748;28;20166;-63
2021/11/15 08:17:49;;;;;;;24.00;14.57;;;;;;;11.67;100.00;102397.47;5088870;28;20416;-68
2021/11/15 08:20:21;;;;;;;24.77;14.17;;;;;;;11.80;100.00;102397.81;5089594;28;20960;-68
2021/11/15 08:22:49;;;;;;;26.20;14.70;;;;;;;11.94;100.00;102397.19;5093173;28;20967;-65
2021/11/15 08:25:52;;;;;;;25.00;14.83;;;;;;;12.05;100.00;102396.69;5099631;28;20436;-64
2021/11/15 08:28:19;;;;;;;22.53;14.40;;;;;;;12.08;100.00;102401.78;5090891;28;20464;-64
2021/11/15 08:30:44;;;;;;;24.23;15.37;;;;;;;12.12;100.00;102392.84;5090458;28;20406;-65
2021/11/15 08:33:12;;;;;;;21.33;13.90;;;;;;;12.13;100.00;102405.09;5106050;28;20429;-67
2021/11/15 08:35:38;;;;;;;23.10;14.70;;;;;;;12.04;100.00;102408.16;5111323;28;20400;-65
2021/11/15 08:38:16;;;;;;;23.10;14.53;;;;;;;12.15;100.00;102413.75;5101510;28;20418;-65
2021/11/15 08:40:46;;;;;;;31.80;16.50;;;;;;;12.19;100.00;102412.72;5090770;28;20917;-66
2021/11/15 08:43:19;;;;;;;24.20;16.80;;;;;;;12.25;100.00;102406.31;5091897;28;20428;-64
2021/11/15 08:45:45;;;;;;;23.33;12.97;;;;;;;12.29;100.00;102415.75;5111115;28;20492;-65
2021/11/15 08:48:11;;;;;;;28.13;14.30;;;;;;;12.36;100.00;102414.53;5092315;28;20554;-64
2021/11/15 08:50:37;;;;;;;23.93;13.60;;;;;;;12.37;100.00;102417.09;5080677;28;20465;-62
2021/11/15 08:53:04;;;;;;;24.80;14.77;;;;;;;12.22;100.00;102426.56;5085828;28;20173;-63
2021/11/15 08:55:30;;;;;;;20.17;14.00;;;;;;;12.27;100.00;102421.09;5089615;28;20821;-63
2021/11/15 08:57:56;;;;;;;24.07;15.63;;;;;;;12.35;100.00;102416.31;5089958;28;20416;-63
2021/11/15 09:00:23;;;;;;;23.40;14.10;;;;;;;12.44;100.00;102413.25;5091588;28;20410;-64
2021/11/15 09:02:48;;;;;;;22.87;15.10;;;;;;;12.39;100.00;102415.28;5093275;28;20402;-64
2021/11/15 09:05:14;;;;;;;23.73;17.17;;;;;;;12.41;100.00;102408.13;5090480;28;20827;-64
2021/11/15 09:07:40;;;;;;;24.07;14.70;;;;;;;12.57;100.00;102407.41;5090703;28;20171;-66
2021/11/15 09:10:08;;;;;;;25.60;16.17;;;;;;;12.65;100.00;102415.78;5090467;28;20611;-69
2021/11/15 09:12:36;;;;;;;25.87;15.90;;;;;;;12.54;100.00;102416.28;5092771;28;20406;-69
2021/11/15 09:15:06;;;;;;;24.60;13.57;;;;;;;12.65;100.00;102411.38;5094682;28;20400;-68
2021/11/15 09:17:32;;;;;;;24.93;14.03;;;;;;;12.62;100.00;102408.91;5093518;28;20398;-63
2021/11/15 09:19:57;;;;;;;21.57;13.97;;;;;;;12.68;100.00;102398.03;5094080;28;20394;-62
2021/11/15 09:22:23;;;;;;;21.50;14.27;;;;;;;12.71;100.00;102402.31;5090998;28;20312;-64
2021/11/15 09:24:50;;;;;;;23.43;14.77;;;;;;;12.82;100.00;102392.06;5095278;28;20168;-63
2021/11/15 09:27:17;;;;;;;20.93;12.63;;;;;;;12.92;100.00;102398.63;5094282;28;20539;-72
2021/11/15 09:29:46;;;;;;;23.40;12.80;;;;;;;13.06;100.00;102396.13;5093041;28;20552;-71
2021/11/15 09:32:12;;;;;;;23.77;14.33;;;;;;;13.15;100.00;102389.53;5094138;28;20414;-76
2021/11/15 09:34:42;;;;;;;25.20;13.63;;;;;;;13.15;100.00;102394.81;5093744;28;20390;-63
2021/11/15 09:37:09;;;;;;;26.47;14.97;;;;;;;13.17;100.00;102394.75;5092093;28;20402;-64
2021/11/15 09:39:37;;;;;;;23.20;14.03;;;;;;;13.21;100.00;102388.38;5094059;28;20398;-66
2021/11/15 09:42:04;;;;;;;23.47;14.23;;;;;;;13.42;100.00;102407.56;5104499;28;20586;-65
2021/11/15 09:44:30;;;;;;;23.20;13.80;;;;;;;13.53;100.00;102395.50;5111043;28;20413;-65
2021/11/15 09:46:55;;;;;;;25.50;15.90;;;;;;;13.54;100.00;102397.22;5114257;28;20443;-65
2021/11/15 09:49:21;;;;;;;18.10;12.80;;;;;;;13.45;100.00;102400.34;5103624;28;20618;-66
2021/11/15 09:51:48;;;;;;;22.00;14.13;;;;;;;13.39;100.00;102390.09;5091347;28;20178;-64
2021/11/15 09:54:15;;;;;;;22.40;13.30;;;;;;;13.33;100.00;102400.97;5097163;28;20270;-64
2021/11/15 09:56:42;;;;;;;20.20;13.53;;;;;;;13.34;100.00;102394.75;5093206;28;20799;-66
2021/11/15 09:59:11;;;;;;;21.20;13.20;;;;;;;13.18;100.00;102399.94;5093845;28;20910;-65
2021/11/15 10:01:41;;;;;;;25.23;14.47;;;;;;;13.28;100.00;102393.28;5093215;28;20394;-65
2021/11/15 10:04:07;;;;;;;24.13;14.03;;;;;;;13.55;100.00;102393.63;5092769;28;20422;-65
2021/11/15 10:06:35;;;;;;;22.17;13.70;;;;;;;13.47;100.00;102390.56;5092845;28;20413;-65
2021/11/15 10:09:01;;;;;;;27.10;14.63;;;;;;;13.67;100.00;102393.91;5092303;28;20749;-66
2021/11/15 10:11:37;;;;;;;22.03;13.80;;;;;;;13.70;100.00;102399.91;5094579;28;20494;-65
2021/11/15 10:14:04;;;;;;;20.37;14.57;;;;;;;13.55;100.00;102396.28;5096885;28;20420;-65
2021/11/15 10:16:32;;;;;;;26.50;14.70;;;;;;;13.70;100.00;102409.63;5092818;28;20398;-66
2021/11/15 10:19:09;;;;;;;26.10;16.33;;;;;;;14.20;100.00;102395.44;5093175;28;20937;-63
2021/11/15 10:22:01;;;;;;;21.47;13.47;;;;;;;14.66;100.00;102378.72;5113316;28;20972;-65
2021/11/15 10:24:35;;;;;;;26.47;13.20;;;;;;;16.10;100.00;102364.72;5076863;28;20523;-68
2021/11/15 10:27:04;;;;;;;21.57;12.67;;;;;;;17.34;100.00;102353.81;5125118;27;20474;-72
2021/11/15 10:29:36;;;;;;;20.50;12.70;;;;;;;20.18;100.00;102351.03;5089871;28;21028;-64
2021/11/15 10:32:08;;;;;;;17.87;12.43;;;;;;;21.43;100.00;102350.31;5084305;28;20403;-65
2021/11/15 10:34:40;;;;;;;17.73;11.40;;;;;;;22.30;97.65;102346.09;5081841;28;20500;-66
2021/11/15 10:37:32;;;;;;;18.30;12.52;;;;;;;20.52;100.00;102357.13;5092228;28;20392;-65
2021/11/15 10:40:08;;;;;;;20.37;12.27;;;;;;;20.40;100.00;102363.44;5090767;28;20182;-65
2021/11/15 10:42:46;;;;;;;19.50;12.00;;;;;;;20.30;100.00;102362.50;5092219;28;20904;-64
2021/11/15 10:45:18;;;;;;;18.07;12.53;;;;;;;20.66;100.00;102354.16;5100459;28;20485;-65
2021/11/15 10:47:50;;;;;;;19.07;11.03;;;;;;;22.26;100.00;102359.88;5092178;28;20410;-65
2021/11/15 10:50:28;;;;;;;15.45;9.55;;;;;;;23.61;69.12;102351.69;5070825;28;20441;-64
2021/11/15 10:53:23;;;;;;;15.00;8.67;;;;;;;23.94;66.11;102341.34;5080220;28;20233;-64
2021/11/15 10:56:07;;;;;;;15.93;9.65;;;;;;;22.37;73.87;102347.22;5100129;28;20429;-64
2021/11/15 10:58:40;;;;;;;17.80;9.40;;;;;;;21.52;80.90;102355.69;5088385;28;20155;-65
2021/11/15 11:01:06;;;;;;;15.50;10.07;;;;;;;22.44;76.87;102350.16;5087873;28;20968;-64
2021/11/15 11:03:33;;;;;;;15.67;7.93;;;;;;;22.73;72.05;102357.34;5093451;28;20444;-64